Time;durP1;ratioP1;P1;durP2;ratioP2;P2;SDS_P1;SDS_P2;PMS_P1;PMS_P2;Temp;Humidity;BMP_temperature;BMP_pressure;BME280_temperature;BME280_humidity;BME280_pressure;Samples;Min_cycle;Max_cycle;Signal;HPM_P1;HPM_P2
2020/12/28 00:00:54;;;;;;;28.35;23.92;;;;;;;2.14;84.81;98820.16;5126034;27;20121;-77
2020/12/28 00:03:59;;;;;;;29.67;22.45;;;;;;;2.14;84.58;98807.78;5125893;27;20042;-78
2020/12/28 00:07:04;;;;;;;30.23;23.58;;;;;;;2.07;84.98;98797.78;5126264;27;20720;-79
2020/12/28 00:10:11;;;;;;;28.58;21.63;;;;;;;2.22;84.65;98791.31;5136894;27;20062;-77
2020/12/28 00:13:16;;;;;;;30.48;23.77;;;;;;;2.28;83.82;98781.06;5125998;27;20050;-80
2020/12/28 00:16:20;;;;;;;31.35;23.45;;;;;;;2.17;83.85;98777.59;5111017;27;20039;-79
2020/12/28 00:19:25;;;;;;;31.55;23.60;;;;;;;2.09;83.45;98770.25;5124324;27;20050;-78
2020/12/28 00:22:29;;;;;;;32.13;22.75;;;;;;;2.22;83.59;98770.13;5136335;27;20041;-78
2020/12/28 00:25:36;;;;;;;29.95;23.40;;;;;;;2.16;83.83;98789.97;5125849;27;20042;-79
2020/12/28 00:28:40;;;;;;;27.33;22.52;;;;;;;2.14;83.46;98768.09;5125690;27;20050;-78
2020/12/28 00:31:45;;;;;;;32.40;24.90;;;;;;;2.07;84.28;98774.84;5124014;27;20046;-79
2020/12/28 00:34:49;;;;;;;30.02;23.77;;;;;;;2.17;84.39;98770.50;5130135;27;20421;-79
2020/12/28 00:37:53;;;;;;;34.60;25.20;;;;;;;2.10;84.35;98758.69;5125441;27;20059;-79
2020/12/28 00:40:58;;;;;;;31.55;23.95;;;;;;;2.09;84.48;98738.50;5125228;27;20038;-77
2020/12/28 00:44:02;;;;;;;27.63;22.63;;;;;;;2.04;84.70;98737.16;5125135;27;20048;-78
2020/12/28 00:47:08;;;;;;;31.73;24.02;;;;;;;1.97;84.78;98742.13;5111517;27;20496;-80
2020/12/28 00:50:12;;;;;;;35.88;24.52;;;;;;;1.95;85.31;98755.44;5124546;27;20038;-78
2020/12/28 00:53:17;;;;;;;30.80;24.10;;;;;;;1.93;85.50;98760.03;5125458;27;20499;-80
2020/12/28 00:56:21;;;;;;;29.98;24.80;;;;;;;2.02;85.67;98757.63;5112802;27;20046;-78
2020/12/28 00:59:26;;;;;;;29.63;23.30;;;;;;;2.13;85.54;98726.69;5111549;27;20396;-77
2020/12/28 01:02:31;;;;;;;32.42;23.23;;;;;;;2.03;84.21;98690.50;5114608;27;20069;-77
2020/12/28 01:05:44;;;;;;;33.83;22.73;;;;;;;2.08;84.19;98701.56;5112323;27;20049;-78
2020/12/28 01:08:50;;;;;;;28.55;21.58;;;;;;;1.96;84.28;98683.06;5111795;27;20050;-77
2020/12/28 01:11:57;;;;;;;31.08;23.77;;;;;;;1.80;85.28;98679.94;5112276;27;20058;-76
2020/12/28 01:15:03;;;;;;;31.33;25.45;;;;;;;1.79;85.51;98674.78;5116055;28;20042;-80
2020/12/28 01:18:16;;;;;;;;;;;;;;;1.78;86.06;98676.56;5112537;27;20042;-80
2020/12/28 01:21:32;;;;;;;29.92;22.67;;;;;;;1.77;85.96;98674.06;5094774;28;19923;-79
2020/12/28 01:24:36;;;;;;;31.98;21.83;;;;;;;1.73;85.30;98668.16;5090957;28;20051;-78
2020/12/28 01:27:41;;;;;;;29.75;21.70;;;;;;;1.82;84.86;98691.25;5092022;28;20509;-79
2020/12/28 01:30:45;;;;;;;31.10;22.65;;;;;;;1.86;84.87;98686.56;5089955;28;20063;-79
2020/12/28 01:34:07;;;;;;;28.35;21.90;;;;;;;1.98;84.76;98685.56;5091379;28;20051;-79
2020/12/28 01:37:32;;;;;;;27.25;20.88;;;;;;;1.97;84.73;98689.19;5091279;28;20055;-77
2020/12/28 01:40:37;;;;;;;28.40;22.58;;;;;;;1.97;84.78;98690.00;5091453;28;20513;-77
2020/12/28 01:44:01;;;;;;;25.77;20.85;;;;;;;2.12;84.21;98676.56;5089988;28;20055;-78
2020/12/28 01:47:05;;;;;;;27.40;20.65;;;;;;;2.11;83.48;98651.03;5089881;28;20047;-79
2020/12/28 01:50:10;;;;;;;29.75;21.98;;;;;;;2.19;83.44;98654.75;5090002;28;20051;-79
2020/12/28 01:53:18;;;;;;;26.77;20.75;;;;;;;2.28;83.14;98654.00;5091425;28;20055;-79
2020/12/28 01:56:28;;;;;;;28.52;21.88;;;;;;;2.22;83.47;98635.16;5090157;28;20402;-79
2020/12/28 01:59:33;;;;;;;27.77;21.55;;;;;;;2.16;83.98;98619.75;5091867;28;20047;-79
2020/12/28 02:02:42;;;;;;;31.80;22.42;;;;;;;2.07;84.67;98617.88;5080724;28;20051;-78
2020/12/28 02:06:00;;;;;;;32.03;22.67;;;;;;;2.04;85.30;98599.59;5096608;28;20054;-79
2020/12/28 02:09:04;;;;;;;33.20;23.98;;;;;;;1.90;86.07;98577.72;5093374;28;20452;-78
2020/12/28 02:12:10;;;;;;;30.70;23.42;;;;;;;1.94;86.25;98567.75;5093566;28;20386;-79
2020/12/28 02:15:14;;;;;;;28.23;22.00;;;;;;;1.92;86.22;98556.44;5095463;28;20067;-78
2020/12/28 02:18:38;;;;;;;30.83;24.30;;;;;;;1.90;86.11;98556.56;5095942;28;20043;-78
2020/12/28 02:21:55;;;;;;;33.03;22.30;;;;;;;1.92;85.82;98533.50;5118449;27;20042;-78
2020/12/28 02:25:04;;;;;;;30.15;22.95;;;;;;;1.86;85.55;98536.63;5106704;28;20113;-79
2020/12/28 02:28:09;;;;;;;26.83;21.08;;;;;;;1.98;85.50;98529.47;5105713;28;20063;-77
2020/12/28 02:31:13;;;;;;;25.90;19.70;;;;;;;1.93;84.45;98535.16;5115866;27;20042;-79
2020/12/28 02:34:50;;;;;;;28.42;19.52;;;;;;;1.92;83.30;98514.13;5094828;28;20062;-79
2020/12/28 02:38:17;;;;;;;25.27;18.85;;;;;;;2.02;82.66;98503.63;5107183;28;20051;-79
2020/12/28 02:41:25;;;;;;;23.10;19.38;;;;;;;2.10;82.65;98507.31;5104324;28;20394;-78
2020/12/28 02:44:48;;;;;;;29.92;20.67;;;;;;;2.09;82.96;98491.56;5105271;28;20055;-79
2020/12/28 02:48:10;;;;;;;23.90;18.75;;;;;;;2.10;83.00;98482.66;5106254;28;20059;-79
2020/12/28 02:51:34;;;;;;;25.75;20.10;;;;;;;2.07;83.22;98459.94;5106499;28;20047;-77
2020/12/28 02:54:57;;;;;;;22.45;17.98;;;;;;;2.14;83.53;98450.53;5106834;28;20050;-79
2020/12/28 02:58:19;;;;;;;30.35;19.33;;;;;;;2.09;83.02;98473.88;5106986;28;20496;-77
2020/12/28 03:01:42;;;;;;;24.90;19.65;;;;;;;2.08;83.61;98468.69;5105169;28;20050;-79
2020/12/28 03:05:05;;;;;;;23.95;19.98;;;;;;;2.10;83.33;98454.38;5104446;28;20051;-78
2020/12/28 03:08:27;;;;;;;23.65;19.15;;;;;;;2.09;83.21;98436.84;5105430;28;20055;-78
2020/12/28 03:11:50;;;;;;;24.25;18.88;;;;;;;2.09;82.95;98441.28;5105647;28;20047;-79
2020/12/28 03:15:13;;;;;;;23.23;18.60;;;;;;;2.14;82.75;98410.00;5104840;28;20046;-79
2020/12/28 03:18:35;;;;;;;22.20;18.88;;;;;;;2.13;82.63;98403.84;5106249;28;20072;-79
2020/12/28 03:21:58;;;;;;;27.63;18.33;;;;;;;2.09;83.07;98406.91;5105332;28;20050;-78
2020/12/28 03:25:21;;;;;;;21.33;17.58;;;;;;;2.14;83.00;98386.19;5106469;28;20492;-77
2020/12/28 03:28:44;;;;;;;26.00;19.35;;;;;;;2.09;83.28;98381.28;5104574;28;20043;-78
2020/12/28 03:32:06;;;;;;;23.02;18.40;;;;;;;2.16;83.19;98376.28;5104661;28;20051;-79
2020/12/28 03:35:29;;;;;;;22.83;18.40;;;;;;;2.09;83.90;98365.41;5105303;28;20043;-77
2020/12/28 03:38:52;;;;;;;21.45;17.48;;;;;;;2.14;83.76;98365.84;5105338;28;20395;-80
2020/12/28 03:42:15;;;;;;;22.17;16.85;;;;;;;2.17;83.40;98347.06;5105934;28;20059;-79
2020/12/28 03:45:37;;;;;;;22.85;18.45;;;;;;;2.07;83.81;98334.75;5105814;28;20055;-77
2020/12/28 03:49:00;;;;;;;21.50;18.23;;;;;;;2.03;83.93;98306.84;5105773;28;20054;-79
2020/12/28 03:52:23;;;;;;;23.70;18.77;;;;;;;1.93;84.19;98297.06;5104049;28;20047;-79
2020/12/28 03:56:05;;;;;;;23.73;18.50;;;;;;;1.72;84.82;98290.97;5061598;28;20091;-79
2020/12/28 03:59:28;;;;;;;23.40;18.38;;;;;;;1.72;85.20;98269.81;5066124;28;20052;-81
2020/12/28 04:02:50;;;;;;;22.48;17.90;;;;;;;1.85;84.86;98251.91;5104679;28;20051;-78
2020/12/28 04:06:13;;;;;;;25.17;18.17;;;;;;;1.85;84.96;98230.75;5105204;28;20051;-78
2020/12/28 04:09:53;;;;;;;22.90;17.42;;;;;;;1.83;84.98;98248.56;5044157;28;20546;-78
2020/12/28 04:12:58;;;;;;;22.38;17.98;;;;;;;1.90;85.41;98243.63;5105435;28;20050;-78
2020/12/28 04:16:03;;;;;;;20.20;16.75;;;;;;;1.93;85.55;98249.47;5103408;28;20043;-79
2020/12/28 04:19:07;;;;;;;21.80;17.48;;;;;;;2.05;85.37;98236.16;5103759;28;20509;-79
2020/12/28 04:22:11;;;;;;;22.80;18.30;;;;;;;1.87;85.46;98238.59;5124099;27;20501;-79
2020/12/28 04:25:15;;;;;;;21.65;18.02;;;;;;;1.66;85.68;98246.53;5110555;27;20050;-79
2020/12/28 04:28:20;;;;;;;22.60;19.02;;;;;;;1.58;86.27;98227.84;5125745;27;20042;-77
2020/12/28 04:31:24;;;;;;;22.13;17.15;;;;;;;1.69;86.45;98208.41;5123718;27;20386;-77
2020/12/28 04:34:28;;;;;;;22.02;17.58;;;;;;;1.71;86.57;98180.88;5124409;27;20051;-78
2020/12/28 04:37:34;;;;;;;20.70;17.55;;;;;;;1.70;86.85;98183.66;5125139;27;20063;-79
2020/12/28 04:40:38;;;;;;;25.20;17.67;;;;;;;1.74;86.97;98201.78;5125507;27;20056;-79
2020/12/28 04:43:43;;;;;;;23.50;17.92;;;;;;;1.82;87.04;98195.81;5125480;27;20042;-79
2020/12/28 04:46:47;;;;;;;21.20;17.17;;;;;;;1.83;86.98;98181.59;5123971;27;20059;-78
2020/12/28 04:49:52;;;;;;;22.05;17.48;;;;;;;1.83;87.10;98174.53;5124847;27;20398;-79
2020/12/28 04:52:56;;;;;;;20.30;16.75;;;;;;;1.78;86.77;98171.44;5110757;27;20046;-79
2020/12/28 04:56:00;;;;;;;23.05;18.00;;;;;;;1.72;87.54;98174.63;5125458;27;20046;-80
2020/12/28 04:59:04;;;;;;;22.92;17.83;;;;;;;1.69;87.61;98159.03;5123672;27;20047;-78
2020/12/28 05:02:09;;;;;;;19.83;17.33;;;;;;;1.72;88.15;98158.78;5100102;27;20039;-78
2020/12/28 05:05:13;;;;;;;20.20;17.10;;;;;;;1.74;88.23;98158.63;5124486;27;20042;-80
2020/12/28 05:08:19;;;;;;;21.27;17.27;;;;;;;1.76;88.26;98139.00;5125103;27;20043;-79
2020/12/28 05:11:23;;;;;;;22.50;16.13;;;;;;;1.89;87.95;98141.41;5123244;27;20046;-79
2020/12/28 05:14:28;;;;;;;20.83;16.80;;;;;;;1.98;87.51;98154.66;5123535;27;20042;-77
2020/12/28 05:17:33;;;;;;;18.35;15.95;;;;;;;2.02;87.28;98133.25;5111699;28;20066;-78
2020/12/28 05:20:45;;;;;;;19.33;16.38;;;;;;;2.04;87.12;98132.13;5124647;27;20043;-77
2020/12/28 05:23:50;;;;;;;18.52;15.77;;;;;;;2.08;86.91;98125.59;5123915;28;20063;-78
2020/12/28 05:26:55;;;;;;;18.65;15.60;;;;;;;2.01;86.73;98113.88;5111812;28;20046;-79
2020/12/28 05:30:00;;;;;;;18.58;15.35;;;;;;;1.93;87.02;98080.16;5125068;28;20050;-80
2020/12/28 05:33:05;;;;;;;17.63;14.70;;;;;;;1.86;86.92;98086.13;5123266;27;20042;-79
2020/12/28 05:36:12;;;;;;;18.25;15.68;;;;;;;1.87;87.32;98090.47;5127794;27;20055;-77
2020/12/28 05:39:19;;;;;;;17.05;14.48;;;;;;;1.76;87.62;98086.13;5128735;27;20390;-77
2020/12/28 05:42:24;;;;;;;17.38;14.75;;;;;;;1.73;87.73;98070.50;5126820;27;20039;-78
2020/12/28 05:45:28;;;;;;;17.67;14.30;;;;;;;1.74;87.66;98053.69;5127374;27;20050;-80
2020/12/28 05:48:36;;;;;;;18.98;15.20;;;;;;;1.63;87.97;98069.66;5128103;27;20428;-79
2020/12/28 05:51:42;;;;;;;17.88;14.65;;;;;;;1.59;88.30;98039.19;5128757;27;20046;-78
2020/12/28 05:54:57;;;;;;;19.35;15.32;;;;;;;1.56;88.69;98042.09;5127171;27;20042;-80
2020/12/28 05:58:04;;;;;;;17.15;14.20;;;;;;;1.69;88.58;98055.06;5128893;27;20050;-77
2020/12/28 06:01:10;;;;;;;20.17;17.38;;;;;;;1.62;88.44;98044.22;5127194;27;20043;-79
2020/12/28 06:04:16;;;;;;;151.27;99.63;;;;;;;1.69;88.30;98031.28;5131338;27;20046;-80
2020/12/28 06:07:22;;;;;;;48.72;34.20;;;;;;;1.73;88.60;98028.22;5131495;27;20047;-79
2020/12/28 06:10:26;;;;;;;19.33;16.35;;;;;;;1.62;88.79;98023.06;5126762;27;20051;-78
2020/12/28 06:13:31;;;;;;;23.40;16.15;;;;;;;1.65;89.73;98014.84;5127621;27;20051;-79
2020/12/28 06:16:35;;;;;;;17.98;15.30;;;;;;;1.66;89.90;97986.59;5115304;27;20046;-78
2020/12/28 06:19:41;;;;;;;18.13;15.52;;;;;;;1.69;89.68;97973.94;5130315;27;20054;-78
2020/12/28 06:22:45;;;;;;;18.35;14.68;;;;;;;1.79;88.96;97956.28;5090181;28;20051;-78
2020/12/28 06:25:58;;;;;;;;;;;;;;;1.71;88.76;97960.56;5086361;28;20043;-78
2020/12/28 06:29:04;;;;;;;19.27;15.15;;;;;;;1.79;88.66;97937.75;5087553;28;19923;-79
2020/12/28 06:32:16;;;;;;;17.27;14.73;;;;;;;1.74;88.44;97921.47;5095989;28;20051;-79
2020/12/28 06:35:28;;;;;;;19.77;15.13;;;;;;;1.82;88.25;97921.63;5099447;28;20402;-79
2020/12/28 06:38:32;;;;;;;18.30;15.90;;;;;;;1.67;88.58;97916.88;5097132;28;20051;-78
2020/12/28 06:41:37;;;;;;;20.25;16.52;;;;;;;1.53;89.14;97917.31;5096379;28;20047;-78
2020/12/28 06:44:42;;;;;;;19.13;16.50;;;;;;;1.46;89.40;97890.56;5094945;28;20055;-78
2020/12/28 06:47:46;;;;;;;22.70;18.02;;;;;;;1.40;90.18;97883.22;5116081;28;20046;-79
2020/12/28 06:50:55;;;;;;;20.98;17.83;;;;;;;1.29;90.88;97865.66;5116503;28;20402;-79
2020/12/28 06:54:00;;;;;;;24.92;20.30;;;;;;;1.28;91.47;97865.81;5114976;28;20051;-82
2020/12/28 06:57:05;;;;;;;27.10;21.30;;;;;;;1.33;91.86;97859.13;5108135;28;20402;-82
2020/12/28 07:00:20;;;;;;;26.52;21.52;;;;;;;1.40;91.74;97845.38;5096716;28;20047;-77
2020/12/28 07:03:25;;;;;;;25.60;21.90;;;;;;;1.33;92.91;97832.69;5110359;27;20055;-77
2020/12/28 07:06:29;;;;;;;27.40;21.25;;;;;;;1.54;92.90;97815.88;5094597;28;20063;-80
2020/12/28 07:09:35;;;;;;;24.70;20.23;;;;;;;1.55;92.80;97812.25;5075693;28;20051;-78
2020/12/28 07:12:39;;;;;;;22.48;19.15;;;;;;;1.64;92.46;97809.59;5102552;28;20110;-75
2020/12/28 07:15:43;;;;;;;26.73;20.13;;;;;;;1.67;92.42;97798.75;5116438;28;20050;-77
2020/12/28 07:18:48;;;;;;;23.98;19.58;;;;;;;1.51;92.55;97769.41;5117029;28;20039;-78
2020/12/28 07:21:52;;;;;;;24.17;19.98;;;;;;;1.55;92.34;97762.88;5111847;28;20118;-77
2020/12/28 07:24:56;;;;;;;30.67;22.40;;;;;;;1.38;92.25;97760.13;5096050;28;20533;-78
2020/12/28 07:28:01;;;;;;;27.55;21.02;;;;;;;1.40;92.52;97759.00;5105271;28;20055;-79
2020/12/28 07:31:07;;;;;;;30.33;21.38;;;;;;;1.49;92.68;97742.28;5101150;28;20047;-80
2020/12/28 07:34:19;;;;;;;32.55;22.75;;;;;;;1.55;92.95;97746.19;5089370;28;20063;-80
2020/12/28 07:37:26;;;;;;;31.35;22.08;;;;;;;1.45;92.96;97727.72;5107721;28;20051;-78
2020/12/28 07:40:30;;;;;;;30.17;22.73;;;;;;;1.39;93.08;97715.03;5074427;28;20044;-77
2020/12/28 07:43:35;;;;;;;30.10;23.05;;;;;;;1.35;93.34;97711.03;5089734;28;20501;-77
2020/12/28 07:47:01;;;;;;;28.70;23.38;;;;;;;1.28;93.62;97702.00;5108796;28;20504;-77
2020/12/28 07:50:08;;;;;;;29.65;22.83;;;;;;;1.29;94.08;97683.38;5116157;28;20050;-78
2020/12/28 07:53:20;;;;;;;28.75;23.90;;;;;;;1.23;94.32;97667.25;5103160;28;20101;-78
2020/12/28 07:56:45;;;;;;;32.05;23.65;;;;;;;1.24;94.53;97658.34;5068622;28;20402;-80
2020/12/28 08:00:06;;;;;;;27.85;22.73;;;;;;;1.36;94.40;97648.47;5082947;28;20055;-80
2020/12/28 08:03:45;;;;;;;27.92;22.88;;;;;;;1.42;94.48;97648.72;5082794;28;20051;-79
2020/12/28 08:06:50;;;;;;;30.33;22.67;;;;;;;1.42;94.33;97648.72;5022142;28;20056;-79
2020/12/28 08:09:55;;;;;;;29.08;23.65;;;;;;;1.41;94.82;97640.94;5067164;28;20047;-78
2020/12/28 08:13:00;;;;;;;24.77;19.90;;;;;;;1.58;94.04;97640.97;5054209;28;20144;-81
2020/12/28 08:16:16;;;;;;;23.45;19.90;;;;;;;1.54;93.93;97636.13;5060507;28;20044;-82
2020/12/28 08:19:27;;;;;;;22.50;18.00;;;;;;;1.53;93.91;97640.59;5049332;28;20048;-82
2020/12/28 08:22:32;;;;;;;22.38;18.00;;;;;;;1.46;94.01;97628.94;5071419;28;20060;-80
2020/12/28 08:25:37;;;;;;;22.48;18.38;;;;;;;1.46;94.29;97628.94;5065087;28;20465;-80
2020/12/28 08:28:46;;;;;;;23.85;18.52;;;;;;;1.50;94.48;97640.06;5048477;28;20416;-82
2020/12/28 08:31:50;;;;;;;21.20;17.27;;;;;;;1.55;95.05;97633.38;5049965;28;20176;-82
2020/12/28 08:34:57;;;;;;;20.77;17.63;;;;;;;1.61;94.66;97626.63;5052617;28;20056;-81
2020/12/28 08:38:02;;;;;;;20.48;16.45;;;;;;;1.65;95.04;97633.31;5040708;28;20048;-81
2020/12/28 08:41:06;;;;;;;20.92;17.05;;;;;;;1.76;94.94;97638.41;5052423;28;20461;-81
2020/12/28 08:44:11;;;;;;;20.83;16.75;;;;;;;1.83;94.89;97620.97;5088206;28;20047;-82
2020/12/28 08:47:15;;;;;;;21.02;17.55;;;;;;;1.80;94.50;97624.75;5100529;28;20051;-79
2020/12/28 08:50:20;;;;;;;22.23;19.27;;;;;;;1.78;94.63;97629.34;5074688;28;20048;-75
2020/12/28 08:53:24;;;;;;;23.90;20.10;;;;;;;1.86;94.39;97642.69;5105903;28;20047;-78
2020/12/28 08:56:37;;;;;;;22.25;18.50;;;;;;;1.92;94.34;97650.03;5094123;28;20509;-76
2020/12/28 08:59:41;;;;;;;19.35;16.67;;;;;;;1.98;94.07;97616.84;5093589;28;20063;-80
2020/12/28 09:02:59;;;;;;;20.42;15.55;;;;;;;2.01;93.76;97621.84;5093733;28;20051;-78
2020/12/28 09:06:07;;;;;;;17.10;14.55;;;;;;;2.00;93.67;97641.34;5093997;28;20101;-77
2020/12/28 09:09:13;;;;;;;20.38;17.42;;;;;;;1.87;93.58;97651.44;5086085;28;20051;-77
2020/12/28 09:12:18;;;;;;;22.00;19.60;;;;;;;1.67;93.71;97628.72;5093123;28;20387;-79
2020/12/28 09:15:23;;;;;;;17.65;15.65;;;;;;;1.66;93.76;97617.31;5083738;28;20851;-80
2020/12/28 09:18:27;;;;;;;21.23;17.02;;;;;;;1.73;94.24;97602.50;5092902;28;20067;-78
2020/12/28 09:21:32;;;;;;;19.88;15.82;;;;;;;1.73;93.97;97597.22;5109759;27;20401;-80
2020/12/28 09:24:38;;;;;;;17.88;15.73;;;;;;;1.73;93.97;97580.53;5113234;28;20056;-79
2020/12/28 09:27:42;;;;;;;17.77;14.25;;;;;;;1.73;93.80;97586.66;5113862;28;20078;-78
2020/12/28 09:30:46;;;;;;;18.17;14.18;;;;;;;1.69;93.96;97595.88;5116197;28;20050;-79
2020/12/28 09:33:51;;;;;;;17.67;12.57;;;;;;;1.63;94.43;97599.09;5113865;28;20047;-80
2020/12/28 09:37:01;;;;;;;16.00;13.73;;;;;;;1.67;94.55;97603.13;5113976;28;20054;-79
2020/12/28 09:40:06;;;;;;;19.83;14.88;;;;;;;1.78;94.83;97589.69;5110855;28;20046;-80
2020/12/28 09:43:11;;;;;;;16.48;14.68;;;;;;;1.92;94.65;97586.56;5098185;28;20063;-80
2020/12/28 09:46:19;;;;;;;16.00;14.27;;;;;;;2.07;94.61;97583.41;5098058;28;20055;-80
2020/12/28 09:49:24;;;;;;;17.52;15.00;;;;;;;2.25;94.29;97603.59;5113238;28;20051;-80
2020/12/28 09:52:28;;;;;;;14.35;12.85;;;;;;;2.25;93.62;97631.84;5113058;28;20050;-80
2020/12/28 09:55:33;;;;;;;14.57;13.00;;;;;;;2.14;93.03;97621.50;5093061;28;20055;-79
2020/12/28 09:58:37;;;;;;;14.38;12.88;;;;;;;2.03;92.93;97629.63;5098381;28;20431;-77
2020/12/28 10:01:46;;;;;;;13.82;12.40;;;;;;;1.87;92.61;97622.34;5114233;28;20050;-81
2020/12/28 10:04:49;;;;;;;12.70;11.38;;;;;;;1.87;92.25;97617.91;5113344;28;20508;-79
2020/12/28 10:07:54;;;;;;;10.40;9.38;;;;;;;1.78;92.26;97618.78;5113853;28;20055;-80
2020/12/28 10:10:58;;;;;;;8.98;8.07;;;;;;;1.82;92.40;97609.59;5113167;28;20055;-78
2020/12/28 10:14:03;;;;;;;7.43;6.72;;;;;;;1.78;92.41;97600.25;5111352;28;20101;-78
2020/12/28 10:17:07;;;;;;;6.78;6.07;;;;;;;1.75;92.46;97605.84;5113110;28;20401;-77
2020/12/28 10:20:12;;;;;;;6.30;5.70;;;;;;;1.71;92.35;97608.94;5116696;28;20516;-77
2020/12/28 10:23:16;;;;;;;6.32;5.72;;;;;;;1.74;92.27;97613.94;5132761;27;20066;-78
2020/12/28 10:26:27;;;;;;;6.68;6.07;;;;;;;1.68;92.28;97620.63;5137906;27;20058;-79
2020/12/28 10:29:31;;;;;;;6.45;5.85;;;;;;;1.69;92.24;97606.44;5137543;27;20051;-78
2020/12/28 10:32:36;;;;;;;6.40;5.80;;;;;;;1.71;92.04;97628.28;5137888;27;20042;-80
2020/12/28 10:35:40;;;;;;;5.85;5.25;;;;;;;1.77;91.70;97618.94;5137522;27;20492;-80
2020/12/28 10:38:49;;;;;;;7.35;6.68;;;;;;;1.71;91.40;97628.28;5137230;27;20202;-80
2020/12/28 10:41:53;;;;;;;7.05;6.38;;;;;;;1.72;91.22;97634.41;5137707;27;20065;-79
2020/12/28 10:44:58;;;;;;;7.80;7.10;;;;;;;1.66;91.01;97624.41;5137506;27;20058;-79
2020/12/28 10:48:02;;;;;;;10.85;8.43;;;;;;;1.64;91.05;97624.56;5124707;27;20093;-80
2020/12/28 10:51:11;;;;;;;11.07;9.63;;;;;;;1.72;91.06;97600.88;5137282;27;20046;-78
2020/12/28 10:54:15;;;;;;;9.88;8.88;;;;;;;1.75;90.76;97610.31;5137345;27;20425;-81
2020/12/28 10:57:19;;;;;;;10.10;9.10;;;;;;;1.86;90.24;97607.47;5136291;27;20070;-78
2020/12/28 11:00:24;;;;;;;10.88;9.88;;;;;;;1.93;89.67;97609.38;5136466;27;20054;-85
2020/12/28 11:03:30;;;;;;;19.98;15.90;;;;;;;2.31;91.50;97602.16;5134134;27;20050;-85
2020/12/28 11:06:40;;;;;;;12.55;10.82;;;;;;;2.46;90.11;97590.06;5116698;28;20070;-79
2020/12/28 11:09:44;;;;;;;11.02;9.93;;;;;;;2.48;88.16;97588.94;5116617;28;20401;-77
2020/12/28 11:12:49;;;;;;;10.45;9.45;;;;;;;2.51;86.74;97593.09;5117155;28;20464;-79
2020/12/28 11:15:53;;;;;;;10.27;9.18;;;;;;;2.52;86.75;97607.97;5116872;28;20054;-78
2020/12/28 11:18:58;;;;;;;11.05;9.95;;;;;;;2.59;86.42;97614.34;5116974;28;20050;-81
2020/12/28 11:22:02;;;;;;;11.48;10.27;;;;;;;2.77;85.76;97616.97;5116043;28;20055;-79
2020/12/28 11:25:06;;;;;;;10.85;9.75;;;;;;;2.86;84.63;97593.06;5117522;27;20058;-80
2020/12/28 11:28:10;;;;;;;11.48;9.50;;;;;;;2.94;84.21;97584.34;5123829;27;20054;-81
2020/12/28 11:31:16;;;;;;;10.93;9.82;;;;;;;3.02;83.73;97595.81;5135033;27;20042;-78
2020/12/28 11:34:21;;;;;;;13.35;10.45;;;;;;;3.03;83.52;97605.44;5135026;27;20054;-77
2020/12/28 11:37:25;;;;;;;11.18;10.07;;;;;;;3.07;83.05;97608.59;5123105;27;20058;-76
2020/12/28 11:40:30;;;;;;;11.30;10.20;;;;;;;3.14;82.98;97594.56;5136042;27;20069;-77
2020/12/28 11:43:35;;;;;;;10.18;9.15;;;;;;;3.08;82.39;97581.13;5123415;27;20047;-78
2020/12/28 11:46:42;;;;;;;10.43;9.32;;;;;;;3.00;82.40;97579.25;5123910;27;20574;-76
2020/12/28 11:49:49;;;;;;;9.68;8.73;;;;;;;2.80;83.34;97603.41;5136141;27;20046;-78
2020/12/28 11:52:53;;;;;;;10.85;9.75;;;;;;;2.69;83.85;97628.34;5116082;28;20059;-78
2020/12/28 11:56:12;;;;;;;10.27;9.18;;;;;;;2.73;83.79;97624.41;5116011;28;20054;-76
2020/12/28 11:59:17;;;;;;;10.32;9.25;;;;;;;2.71;83.66;97633.47;5133880;27;20101;-75
2020/12/28 12:02:22;;;;;;;10.55;9.00;;;;;;;2.78;83.51;97637.19;5123468;27;20480;-76
2020/12/28 12:05:26;;;;;;;9.98;8.98;;;;;;;2.73;83.08;97634.16;5135939;27;20049;-77
2020/12/28 12:08:30;;;;;;;9.93;8.93;;;;;;;2.81;83.11;97639.53;5135605;27;20050;-78
2020/12/28 12:11:35;;;;;;;9.68;8.70;;;;;;;2.89;82.79;97621.88;5123737;27;20054;-78
2020/12/28 12:14:40;;;;;;;8.93;8.02;;;;;;;2.95;82.59;97604.53;5136258;27;20051;-78
2020/12/28 12:17:46;;;;;;;11.23;9.13;;;;;;;2.95;82.62;97605.38;5135736;27;20046;-78
2020/12/28 12:20:51;;;;;;;9.98;8.55;;;;;;;3.07;81.57;97612.06;5135382;27;20046;-78
2020/12/28 12:23:55;;;;;;;9.70;8.60;;;;;;;3.00;81.50;97599.59;5122514;27;20066;-83
2020/12/28 12:27:00;;;;;;;9.25;8.23;;;;;;;2.97;82.20;97610.50;5111390;27;20050;-79
2020/12/28 12:30:05;;;;;;;9.32;7.95;;;;;;;2.98;81.41;97605.06;5091130;28;20051;-78
2020/12/28 12:33:10;;;;;;;8.35;7.50;;;;;;;3.11;80.17;97592.22;5129990;27;20054;-79
2020/12/28 12:36:16;;;;;;;8.27;7.47;;;;;;;3.25;79.92;97589.03;5135484;27;20054;-80
2020/12/28 12:39:20;;;;;;;9.55;8.15;;;;;;;3.12;79.52;97585.13;5122354;27;20054;-79
2020/12/28 12:42:25;;;;;;;8.30;7.50;;;;;;;3.12;79.62;97607.16;5137306;27;20050;-79
2020/12/28 12:45:30;;;;;;;8.10;7.30;;;;;;;3.08;79.26;97612.91;5148474;27;20042;-85
2020/12/28 12:48:34;;;;;;;9.32;8.38;;;;;;;3.03;81.06;97613.38;5136933;27;20393;-78
2020/12/28 12:51:38;;;;;;;8.80;7.95;;;;;;;3.02;81.08;97618.81;5135055;27;20067;-79
2020/12/28 12:54:43;;;;;;;8.68;7.82;;;;;;;3.00;80.99;97621.63;5119229;27;20054;-77
2020/12/28 12:57:47;;;;;;;8.85;7.95;;;;;;;2.98;80.27;97610.38;5125445;27;20046;-78
2020/12/28 13:00:52;;;;;;;8.52;7.68;;;;;;;3.00;80.02;97619.00;5122255;27;20046;-78
2020/12/28 13:03:57;;;;;;;8.93;8.02;;;;;;;2.94;80.17;97634.69;5135151;27;20369;-79
2020/12/28 13:07:01;;;;;;;11.20;8.80;;;;;;;2.88;80.30;97636.13;5135074;27;20042;-77
2020/12/28 13:10:07;;;;;;;9.30;8.32;;;;;;;2.91;80.37;97637.63;5134912;27;20388;-78
2020/12/28 13:13:12;;;;;;;9.50;8.25;;;;;;;2.96;80.38;97617.63;5122190;27;20392;-77
2020/12/28 13:16:16;;;;;;;9.27;8.38;;;;;;;2.97;80.26;97623.75;5135071;27;20038;-78
2020/12/28 13:19:20;;;;;;;9.15;8.25;;;;;;;2.86;80.99;97618.72;5136523;27;20050;-79
2020/12/28 13:22:25;;;;;;;8.93;8.10;;;;;;;2.85;81.13;97620.53;5103218;28;20046;-77
2020/12/28 13:25:29;;;;;;;9.27;8.35;;;;;;;2.94;80.54;97614.28;5128577;27;20058;-79
2020/12/28 13:28:34;;;;;;;8.90;8.05;;;;;;;2.98;80.48;97620.13;5149144;27;20482;-79
2020/12/28 13:31:38;;;;;;;9.93;8.98;;;;;;;2.96;80.56;97625.56;5145232;27;20389;-80
2020/12/28 13:34:43;;;;;;;9.93;8.93;;;;;;;2.91;80.80;97625.22;5133518;27;20042;-79
2020/12/28 13:37:47;;;;;;;9.77;8.77;;;;;;;3.05;80.82;97643.22;5114232;28;20059;-78
2020/12/28 13:40:52;;;;;;;9.35;8.45;;;;;;;3.05;80.73;97651.16;5114471;28;20039;-79
2020/12/28 13:43:56;;;;;;;9.27;8.38;;;;;;;3.15;80.37;97641.28;5122439;28;20046;-77
2020/12/28 13:47:01;;;;;;;9.55;8.65;;;;;;;3.20;79.98;97641.66;5133723;28;20062;-77
2020/12/28 13:50:06;;;;;;;10.88;9.77;;;;;;;3.06;80.03;97647.50;5134063;28;20066;-84
2020/12/28 13:53:10;;;;;;;10.32;9.30;;;;;;;3.07;81.08;97649.19;5133368;28;20050;-79
2020/12/28 13:56:19;;;;;;;11.02;9.18;;;;;;;3.09;81.19;97652.50;5145753;27;20511;-79
2020/12/28 13:59:23;;;;;;;10.05;9.05;;;;;;;3.12;81.39;97657.50;5125500;27;20050;-80
2020/12/28 14:02:28;;;;;;;10.02;9.02;;;;;;;3.13;80.46;97651.22;5138263;27;20050;-80
2020/12/28 14:05:32;;;;;;;9.82;8.82;;;;;;;3.16;79.61;97653.53;5105566;28;20051;-77
2020/12/28 14:08:42;;;;;;;11.60;9.05;;;;;;;3.01;79.81;97657.72;5121584;27;20051;-79
2020/12/28 14:11:47;;;;;;;9.93;8.93;;;;;;;2.99;80.01;97646.47;5125691;27;20050;-79
2020/12/28 14:14:51;;;;;;;11.27;10.07;;;;;;;2.95;80.24;97642.47;5143104;27;20049;-78
2020/12/28 14:17:55;;;;;;;13.05;10.45;;;;;;;2.94;80.05;97664.63;5149561;27;20046;-78
2020/12/28 14:21:00;;;;;;;12.48;10.90;;;;;;;2.90;80.62;97670.38;5116948;28;20051;-80
2020/12/28 14:24:05;;;;;;;13.48;11.48;;;;;;;2.95;80.52;97668.94;5141756;27;20049;-78
2020/12/28 14:27:09;;;;;;;13.57;11.07;;;;;;;3.03;80.72;97673.50;5137690;27;20086;-78
2020/12/28 14:30:13;;;;;;;11.80;10.60;;;;;;;3.06;81.35;97673.19;5137369;27;20053;-80
2020/12/28 14:33:19;;;;;;;11.75;10.48;;;;;;;3.05;80.87;97672.34;5122694;27;20047;-78
2020/12/28 14:36:23;;;;;;;11.23;9.98;;;;;;;3.13;80.81;97683.03;5137844;27;20050;-79
2020/12/28 14:39:28;;;;;;;11.05;9.65;;;;;;;3.06;80.82;97678.50;5143740;27;20047;-76